Time;durP1;ratioP1;P1;durP2;ratioP2;P2;SDS_P1;SDS_P2;PMS_P1;PMS_P2;Temp;Humidity;BMP_temperature;BMP_pressure;BME280_temperature;BME280_humidity;BME280_pressure;Samples;Min_cycle;Max_cycle;Signal;HPM_P1;HPM_P2
2022/11/06 00:00:06;;;;;;;1.63;1.20;;;9.90;87.30;;;;;;5118626;28;20031;-75
2022/11/06 00:02:32;;;;;;;1.88;1.30;;;9.90;87.40;;;;;;5096140;28;20044;-76
2022/11/06 00:06:46;;;;;;;2.05;1.50;;;9.90;87.40;;;;;;5114793;28;20070;-74
2022/11/06 00:07:46;;;;;;;1.77;1.30;;;9.80;87.40;;;;;;5112844;28;20052;-73
2022/11/06 00:10:14;;;;;;;2.70;1.52;;;9.80;87.40;;;;;;5113455;28;20062;-74
2022/11/06 00:12:40;;;;;;;1.90;1.35;;;9.80;87.50;;;;;;5111779;28;20078;-75
2022/11/06 00:15:07;;;;;;;1.13;1.00;;;9.80;87.50;;;;;;5113725;28;20135;-74
2022/11/06 00:17:33;;;;;;;4.00;1.60;;;9.80;87.60;;;;;;5114115;28;20036;-75
2022/11/06 00:19:59;;;;;;;2.80;1.50;;;9.80;87.60;;;;;;5103817;28;20039;-73
2022/11/06 00:22:25;;;;;;;1.90;1.40;;;9.80;87.60;;;;;;5115731;28;20035;-74
2022/11/06 00:24:52;;;;;;;2.58;1.60;;;9.80;87.60;;;;;;5114477;28;20118;-74
2022/11/06 00:27:18;;;;;;;2.03;1.10;;;9.80;87.60;;;;;;5078453;28;20072;-78
2022/11/06 00:29:45;;;;;;;1.92;1.30;;;9.80;87.60;;;;;;5094926;28;20396;-75
2022/11/06 00:32:11;;;;;;;1.50;1.20;;;9.80;87.50;;;;;;5078645;28;20040;-75
2022/11/06 00:34:37;;;;;;;2.53;1.30;;;9.90;87.60;;;;;;5095655;28;20048;-78
2022/11/06 00:37:03;;;;;;;1.88;1.25;;;9.90;87.60;;;;;;5095418;28;20061;-78
2022/11/06 00:39:29;;;;;;;1.92;1.10;;;9.90;87.60;;;;;;5078439;28;20036;-76
2022/11/06 00:41:55;;;;;;;2.33;1.23;;;9.90;87.60;;;;;;5112830;28;20040;-77
2022/11/06 00:44:23;;;;;;;1.25;1.15;;;9.90;87.50;;;;;;5113319;28;20036;-77
2022/11/06 00:46:49;;;;;;;2.03;1.27;;;9.80;87.50;;;;;;5094687;28;20035;-76
2022/11/06 00:49:15;;;;;;;2.10;1.20;;;9.90;87.50;;;;;;5113070;28;20043;-77
2022/11/06 00:51:41;;;;;;;2.35;1.40;;;9.90;87.60;;;;;;5113108;28;20493;-77
2022/11/06 00:54:11;;;;;;;2.88;1.00;;;9.80;87.50;;;;;;5113173;28;20065;-78
2022/11/06 00:56:37;;;;;;;1.73;1.20;;;9.80;87.60;;;;;;5095469;28;20036;-77
2022/11/06 00:59:07;;;;;;;3.88;1.42;;;9.80;87.60;;;;;;5130607;28;20577;-76
2022/11/06 01:01:36;;;;;;;2.30;1.40;;;9.80;87.60;;;;;;5135151;28;20048;-76
2022/11/06 01:04:05;;;;;;;1.83;1.20;;;9.80;87.60;;;;;;5134272;28;20035;-77
2022/11/06 01:06:35;;;;;;;3.08;1.15;;;9.80;87.60;;;;;;5100908;28;20027;-75
2022/11/06 01:09:01;;;;;;;2.15;1.30;;;9.80;87.60;;;;;;5128765;28;20043;-75
2022/11/06 01:11:31;;;;;;;1.75;0.95;;;9.80;87.60;;;;;;5128939;28;20047;-75
2022/11/06 01:13:58;;;;;;;2.33;1.08;;;9.70;87.60;;;;;;5111111;28;20039;-75
2022/11/06 01:16:25;;;;;;;2.50;1.10;;;9.80;87.70;;;;;;5115042;28;20442;-76
2022/11/06 01:18:52;;;;;;;1.92;1.10;;;9.80;87.80;;;;;;5115556;28;20040;-76
2022/11/06 01:21:21;;;;;;;1.80;1.20;;;9.70;87.80;;;;;;5133853;28;20043;-76
2022/11/06 01:23:52;;;;;;;1.48;1.10;;;9.80;87.80;;;;;;5115343;28;20035;-77
2022/11/06 01:26:18;;;;;;;1.40;1.10;;;9.80;87.80;;;;;;5131578;28;20035;-76
2022/11/06 01:28:43;;;;;;;2.38;1.27;;;9.70;87.80;;;;;;5098451;28;20048;-76
2022/11/06 01:31:12;;;;;;;2.05;0.90;;;9.70;87.80;;;;;;5133079;28;20055;-76
2022/11/06 01:33:38;;;;;;;1.05;0.77;;;9.60;87.80;;;;;;5113992;28;20035;-75
2022/11/06 01:36:07;;;;;;;1.95;0.90;;;9.70;87.90;;;;;;5098893;28;20039;-76
2022/11/06 01:38:32;;;;;;;2.33;0.70;;;9.70;87.90;;;;;;5131462;28;20068;-75
2022/11/06 01:40:58;;;;;;;2.05;1.08;;;9.70;87.90;;;;;;5099544;28;20023;-77
2022/11/06 01:43:41;;;;;;;1.30;1.00;;;9.70;87.90;;;;;;5099285;28;20047;-76
2022/11/06 01:46:07;;;;;;;1.45;1.02;;;9.70;87.80;;;;;;5113192;28;20503;-76
2022/11/06 01:48:33;;;;;;;2.35;1.25;;;9.70;87.80;;;;;;5112190;28;20104;-76
2022/11/06 01:50:59;;;;;;;0.80;0.73;;;9.70;87.90;;;;;;5097786;28;20056;-76
2022/11/06 01:53:26;;;;;;;2.47;0.90;;;9.70;87.90;;;;;;5132736;28;20070;-76
2022/11/06 01:55:56;;;;;;;1.88;1.02;;;9.60;87.90;;;;;;5132770;28;20100;-76
2022/11/06 01:58:25;;;;;;;1.15;0.80;;;9.60;88.00;;;;;;5132447;28;20043;-76
2022/11/06 02:00:51;;;;;;;1.80;1.13;;;9.60;88.00;;;;;;5111486;28;20093;-75
2022/11/06 02:03:18;;;;;;;1.83;1.00;;;9.70;88.10;;;;;;5133314;28;20035;-75
2022/11/06 02:05:44;;;;;;;2.22;1.10;;;9.70;88.00;;;;;;5132469;28;20394;-76
2022/11/06 02:08:14;;;;;;;1.58;1.00;;;9.60;87.90;;;;;;5108767;28;20047;-75
2022/11/06 02:10:40;;;;;;;1.73;1.00;;;9.70;88.00;;;;;;5106567;28;20046;-75
2022/11/06 02:13:34;;;;;;;2.20;1.23;;;9.60;88.00;;;;;;5125979;28;20055;-75
2022/11/06 02:16:23;;;;;;;1.63;0.95;;;9.60;88.00;;;;;;5111059;28;20048;-75
2022/11/06 02:19:09;;;;;;;2.60;0.80;;;9.60;88.00;;;;;;5099691;28;20068;-76
2022/11/06 02:22:02;;;;;;;2.70;0.90;;;9.70;88.00;;;;;;5112284;28;20040;-75
2022/11/06 02:24:52;;;;;;;1.88;0.93;;;9.60;87.90;;;;;;5119577;28;20051;-75
2022/11/06 02:27:21;;;;;;;0.75;0.70;;;9.70;87.90;;;;;;5133036;28;20059;-76
2022/11/06 02:29:57;;;;;;;1.77;0.85;;;9.70;87.90;;;;;;5114026;28;20057;-76
2022/11/06 02:32:44;;;;;;;0.70;0.70;;;9.70;87.80;;;;;;5116536;28;20047;-76
2022/11/06 02:35:19;;;;;;;1.10;0.70;;;9.70;87.80;;;;;;5103086;28;20044;-76
2022/11/06 02:37:47;;;;;;;0.75;0.70;;;9.70;87.80;;;;;;5134188;28;20044;-76
2022/11/06 02:40:14;;;;;;;1.10;0.63;;;9.70;87.80;;;;;;5133138;28;20577;-75
2022/11/06 02:42:45;;;;;;;1.10;0.60;;;9.70;87.90;;;;;;5115300;28;20040;-76
2022/11/06 02:45:16;;;;;;;0.95;0.50;;;9.60;87.80;;;;;;5100701;28;20053;-76
2022/11/06 02:47:45;;;;;;;1.02;0.80;;;9.60;87.80;;;;;;5134677;28;20043;-76
2022/11/06 02:50:21;;;;;;;1.75;0.80;;;9.70;87.90;;;;;;5133007;28;20059;-75
2022/11/06 02:52:56;;;;;;;0.90;0.60;;;9.70;87.90;;;;;;5118618;28;20024;-75
2022/11/06 02:55:30;;;;;;;1.77;0.90;;;9.70;87.80;;;;;;5117693;28;20063;-76
2022/11/06 02:58:02;;;;;;;0.90;0.60;;;9.80;87.90;;;;;;5114849;28;20066;-75
2022/11/06 03:00:28;;;;;;;0.73;0.68;;;9.80;87.90;;;;;;5116812;28;20044;-76
2022/11/06 03:02:59;;;;;;;1.23;0.70;;;9.90;87.90;;;;;;5117555;28;20063;-76
2022/11/06 03:05:28;;;;;;;;;;;9.80;87.80;;;;;;5134619;28;20082;-76
2022/11/06 03:08:08;;;;;;;2.00;0.88;;;9.80;87.80;;;;;;5116240;28;19915;-76
2022/11/06 03:10:45;;;;;;;0.90;0.68;;;9.80;87.80;;;;;;5115560;28;20040;-76
2022/11/06 03:13:20;;;;;;;1.45;0.68;;;9.80;87.80;;;;;;5116669;28;20097;-75
2022/11/06 03:16:13;;;;;;;0.95;0.57;;;9.80;87.70;;;;;;5114776;28;20502;-75
2022/11/06 03:19:10;;;;;;;2.58;0.65;;;9.80;87.70;;;;;;5130293;28;20050;-76
2022/11/06 03:21:47;;;;;;;1.08;0.70;;;9.80;87.70;;;;;;5100519;28;20069;-75
2022/11/06 03:24:20;;;;;;;1.42;0.88;;;9.90;87.80;;;;;;5114294;28;20048;-76
2022/11/06 03:26:49;;;;;;;0.68;0.50;;;9.80;87.70;;;;;;5117134;28;20071;-75
2022/11/06 03:29:38;;;;;;;1.17;0.80;;;10.00;87.80;;;;;;5130954;28;20059;-75
2022/11/06 03:32:13;;;;;;;1.48;0.80;;;9.90;87.70;;;;;;5130021;28;20040;-75
2022/11/06 03:34:49;;;;;;;0.60;0.50;;;9.90;87.70;;;;;;5131441;28;20073;-75
2022/11/06 03:37:21;;;;;;;0.98;0.60;;;9.90;87.70;;;;;;5097704;28;20054;-75
2022/11/06 03:39:51;;;;;;;0.57;0.50;;;9.80;87.60;;;;;;5130748;28;20069;-75
2022/11/06 03:42:22;;;;;;;1.25;0.82;;;9.90;87.70;;;;;;5127875;28;20036;-75
2022/11/06 03:44:54;;;;;;;0.43;0.40;;;9.90;87.70;;;;;;5129890;28;20054;-75
2022/11/06 03:47:22;;;;;;;;;;;10.00;87.70;;;;;;5129937;28;20047;-75
2022/11/06 03:49:58;;;;;;;2.00;0.73;;;9.90;87.60;;;;;;5113670;28;19933;-75
2022/11/06 03:52:32;;;;;;;0.93;0.50;;;10.00;87.60;;;;;;5116818;28;20073;-75
2022/11/06 03:55:13;;;;;;;1.95;0.60;;;9.90;87.60;;;;;;5133870;28;20035;-76
2022/11/06 03:57:45;;;;;;;0.55;0.50;;;10.00;87.60;;;;;;5133149;28;20040;-76
2022/11/06 04:00:12;;;;;;;1.38;0.60;;;10.00;87.60;;;;;;5117654;28;20050;-76
2022/11/06 04:02:42;;;;;;;1.20;0.50;;;10.10;87.70;;;;;;5134364;28;20035;-76
2022/11/06 04:05:16;;;;;;;0.75;0.45;;;10.10;87.70;;;;;;5098835;28;20043;-76
2022/11/06 04:13:56;;;;;;;0.50;0.50;;;10.00;87.70;;;;;;5133161;28;20073;-76
2022/11/06 04:15:54;;;;;;;1.08;0.50;;;10.00;87.70;;;;;;5132564;28;20040;-76
2022/11/06 04:18:20;;;;;;;0.40;0.40;;;10.00;87.70;;;;;;5134080;28;20050;-76
2022/11/06 04:27:10;;;;;;;0.73;0.40;;;10.10;87.90;;;;;;5121433;28;20051;-76
2022/11/06 04:29:59;;;;;;;0.38;0.38;;;10.10;87.90;;;;;;5114030;28;20108;-76
2022/11/06 04:32:51;;;;;;;0.45;0.45;;;10.10;87.80;;;;;;5116938;28;20070;-76
2022/11/06 04:35:30;;;;;;;0.80;0.57;;;10.10;87.80;;;;;;5132532;28;20052;-76
2022/11/06 04:38:03;;;;;;;0.85;0.50;;;10.20;87.70;;;;;;5115377;28;20039;-76
2022/11/06 04:40:50;;;;;;;0.68;0.50;;;10.30;87.80;;;;;;5114917;28;20047;-76
2022/11/06 04:43:37;;;;;;;1.10;0.50;;;10.20;87.60;;;;;;5131336;28;20051;-76
2022/11/06 04:46:05;;;;;;;1.88;0.63;;;10.20;87.60;;;;;;5133296;28;20059;-76
2022/11/06 04:48:31;;;;;;;1.30;0.60;;;10.20;87.50;;;;;;5116471;28;20880;-76
2022/11/06 04:51:02;;;;;;;1.95;0.65;;;10.20;87.50;;;;;;5133620;28;20051;-76
2022/11/06 04:53:30;;;;;;;0.43;0.43;;;10.20;87.60;;;;;;5115319;28;20078;-76
2022/11/06 04:56:05;;;;;;;0.75;0.50;;;10.20;87.50;;;;;;5133584;28;20054;-76
2022/11/06 04:58:30;;;;;;;2.03;0.60;;;10.20;87.50;;;;;;5115883;28;20043;-76
2022/11/06 05:00:56;;;;;;;1.13;0.70;;;10.20;87.50;;;;;;5133790;28;20040;-76
2022/11/06 05:03:22;;;;;;;0.80;0.57;;;10.20;87.60;;;;;;5116264;28;20027;-76
2022/11/06 05:05:47;;;;;;;1.25;0.60;;;10.20;87.60;;;;;;5134029;28;20054;-76
2022/11/06 05:08:16;;;;;;;1.55;0.80;;;10.20;87.60;;;;;;5134010;28;20050;-76
2022/11/06 05:10:42;;;;;;;0.45;0.45;;;10.20;87.60;;;;;;5133589;28;20040;-76
2022/11/06 05:13:08;;;;;;;0.77;0.52;;;10.20;87.70;;;;;;5132546;28;20103;-76
2022/11/06 05:15:34;;;;;;;0.40;0.40;;;10.10;87.70;;;;;;5114449;28;20081;-76
2022/11/06 05:18:01;;;;;;;0.57;0.40;;;10.10;87.80;;;;;;5133296;28;20043;-76
2022/11/06 05:20:26;;;;;;;0.98;0.40;;;10.20;87.80;;;;;;5099869;28;20040;-76
2022/11/06 05:22:59;;;;;;;1.85;0.63;;;10.20;87.90;;;;;;5132416;28;20043;-76
2022/11/06 05:25:30;;;;;;;1.30;0.40;;;10.10;87.80;;;;;;5116679;28;20042;-76
2022/11/06 05:27:56;;;;;;;0.63;0.50;;;10.20;87.80;;;;;;5133956;28;20046;-76
2022/11/06 05:30:22;;;;;;;1.08;0.47;;;10.30;87.80;;;;;;5133893;28;20265;-76
2022/11/06 05:32:48;;;;;;;0.90;0.43;;;10.20;87.70;;;;;;5134147;28;20108;-76
2022/11/06 05:35:15;;;;;;;1.05;0.70;;;10.20;87.70;;;;;;5100359;28;20039;-76
2022/11/06 05:37:41;;;;;;;1.23;0.55;;;10.20;87.70;;;;;;5133649;28;20024;-76
2022/11/06 05:40:08;;;;;;;0.60;0.55;;;10.30;87.80;;;;;;5134332;28;20043;-76
2022/11/06 05:42:37;;;;;;;1.05;0.50;;;10.30;87.70;;;;;;5100218;28;20031;-76
2022/11/06 05:45:03;;;;;;;0.68;0.50;;;10.20;87.70;;;;;;5134937;28;20042;-76
2022/11/06 05:47:28;;;;;;;0.82;0.40;;;10.20;87.70;;;;;;5134146;28;20058;-76
2022/11/06 05:49:54;;;;;;;0.80;0.50;;;10.30;87.80;;;;;;5133225;28;20099;-76
2022/11/06 05:52:20;;;;;;;1.63;0.40;;;10.20;87.70;;;;;;5117840;28;20047;-76
2022/11/06 05:54:46;;;;;;;0.40;0.30;;;10.30;87.90;;;;;;5116521;28;20055;-76
2022/11/06 05:57:11;;;;;;;0.93;0.60;;;10.20;87.80;;;;;;5137237;28;20059;-76
2022/11/06 05:59:37;;;;;;;0.63;0.63;;;10.10;87.90;;;;;;5119273;28;20047;-76
2022/11/06 06:02:03;;;;;;;0.93;0.50;;;10.30;88.00;;;;;;5137070;28;20095;-76
2022/11/06 06:04:28;;;;;;;1.30;0.40;;;10.20;88.00;;;;;;5118261;28;20027;-76
2022/11/06 06:06:54;;;;;;;0.50;0.38;;;10.20;88.00;;;;;;5135788;28;20564;-76
2022/11/06 06:09:20;;;;;;;0.30;0.30;;;10.20;88.00;;;;;;5135743;28;20075;-76
2022/11/06 06:11:49;;;;;;;0.43;0.40;;;10.20;88.00;;;;;;5136248;28;20047;-76
2022/11/06 06:14:14;;;;;;;0.80;0.40;;;10.20;88.00;;;;;;5135260;28;20061;-76
2022/11/06 06:16:40;;;;;;;0.32;0.32;;;10.20;88.00;;;;;;5118888;28;20032;-76
2022/11/06 06:19:06;;;;;;;0.70;0.50;;;10.20;88.70;;;;;;5135788;28;20103;-76
2022/11/06 06:21:31;;;;;;;1.23;0.50;;;10.10;88.00;;;;;;5117163;28;20521;-77
2022/11/06 06:23:57;;;;;;;1.58;0.50;;;10.20;88.10;;;;;;5134469;28;20386;-76
2022/11/06 06:26:23;;;;;;;0.57;0.57;;;10.20;88.10;;;;;;5098766;28;20047;-76
2022/11/06 06:28:48;;;;;;;0.70;0.50;;;10.20;88.10;;;;;;5134389;28;20027;-76
2022/11/06 06:31:14;;;;;;;1.05;0.63;;;10.20;88.20;;;;;;5114020;28;20047;-77
2022/11/06 06:33:40;;;;;;;1.15;0.60;;;10.20;88.10;;;;;;5116231;28;20127;-76
2022/11/06 06:36:06;;;;;;;0.90;0.60;;;10.10;88.10;;;;;;5135789;28;20047;-77
2022/11/06 06:38:31;;;;;;;2.20;0.70;;;10.20;88.10;;;;;;5134785;28;20039;-76
2022/11/06 06:41:02;;;;;;;0.77;0.50;;;10.20;88.10;;;;;;5117816;28;20081;-76
2022/11/06 06:43:27;;;;;;;1.02;0.60;;;10.20;88.10;;;;;;5100906;28;20857;-76
2022/11/06 06:45:57;;;;;;;1.35;0.60;;;10.20;88.10;;;;;;5135393;28;20075;-77
2022/11/06 06:48:23;;;;;;;0.80;0.60;;;10.20;88.10;;;;;;5135289;28;20057;-76
2022/11/06 06:50:48;;;;;;;1.20;0.65;;;10.20;88.10;;;;;;5101515;28;20035;-76
2022/11/06 06:53:16;;;;;;;0.60;0.50;;;10.20;88.10;;;;;;5101896;28;20046;-76
2022/11/06 06:55:42;;;;;;;0.50;0.47;;;10.10;88.00;;;;;;5136428;28;20035;-76
2022/11/06 06:58:09;;;;;;;1.27;0.47;;;10.20;88.10;;;;;;5118480;28;20073;-76
2022/11/06 07:00:35;;;;;;;1.00;0.70;;;10.20;88.00;;;;;;5134715;28;20070;-77
2022/11/06 07:03:01;;;;;;;0.70;0.52;;;10.20;88.00;;;;;;5118222;28;20051;-76
2022/11/06 07:05:27;;;;;;;1.30;0.60;;;10.20;88.00;;;;;;5135966;28;20040;-76
2022/11/06 07:07:53;;;;;;;0.65;0.50;;;10.30;88.00;;;;;;5117323;28;20047;-76
2022/11/06 07:10:19;;;;;;;1.23;0.68;;;10.30;88.00;;;;;;5117817;28;20053;-76
2022/11/06 07:12:44;;;;;;;1.17;0.60;;;10.30;88.00;;;;;;5132998;28;20043;-76
2022/11/06 07:15:10;;;;;;;0.60;0.40;;;10.30;88.00;;;;;;5097450;28;20038;-76
2022/11/06 07:17:36;;;;;;;0.80;0.60;;;10.30;87.90;;;;;;5128474;28;20103;-76
2022/11/06 07:20:03;;;;;;;0.93;0.50;;;10.30;87.90;;;;;;5113626;28;20052;-76
2022/11/06 07:22:28;;;;;;;1.60;0.70;;;10.30;87.90;;;;;;5110505;28;20046;-76
2022/11/06 07:24:54;;;;;;;0.82;0.57;;;10.40;87.90;;;;;;5110609;28;20533;-77
2022/11/06 07:27:20;;;;;;;1.58;0.70;;;10.40;87.90;;;;;;5110604;28;20069;-76
2022/11/06 07:29:46;;;;;;;1.65;0.60;;;10.40;87.80;;;;;;5111377;28;20050;-76
2022/11/06 07:32:12;;;;;;;2.22;0.60;;;10.40;87.70;;;;;;5129536;28;20040;-76
2022/11/06 07:34:37;;;;;;;1.42;0.75;;;10.50;87.70;;;;;;5112259;28;20187;-76
2022/11/06 07:37:05;;;;;;;1.02;0.68;;;10.50;87.60;;;;;;5112450;28;20061;-76
2022/11/06 07:39:31;;;;;;;1.08;0.50;;;10.60;87.60;;;;;;5132990;28;20048;-76
2022/11/06 07:41:57;;;;;;;0.80;0.60;;;10.50;87.50;;;;;;5132756;28;20050;-76
2022/11/06 07:44:23;;;;;;;1.25;0.73;;;10.60;87.50;;;;;;5134066;28;20105;-76
2022/11/06 07:46:48;;;;;;;0.88;0.50;;;10.60;87.40;;;;;;5134196;28;20043;-76
2022/11/06 07:49:15;;;;;;;0.93;0.60;;;10.60;87.30;;;;;;5131325;28;20043;-76
2022/11/06 07:51:42;;;;;;;0.80;0.40;;;10.60;87.30;;;;;;5127940;28;20046;-76
2022/11/06 07:54:09;;;;;;;1.70;0.80;;;10.70;87.30;;;;;;5091897;28;20039;-76
2022/11/06 07:56:34;;;;;;;1.90;0.60;;;10.70;87.30;;;;;;5129694;28;20048;-76
2022/11/06 07:59:00;;;;;;;1.23;0.55;;;10.70;87.20;;;;;;5111106;28;20390;-76
2022/11/06 08:01:26;;;;;;;0.88;0.60;;;10.70;87.20;;;;;;5126705;28;20047;-76
2022/11/06 08:03:51;;;;;;;1.17;0.68;;;10.80;87.20;;;;;;5127611;28;20561;-75
2022/11/06 08:06:17;;;;;;;0.52;0.52;;;10.80;87.20;;;;;;5111407;28;20036;-76
2022/11/06 08:08:43;;;;;;;2.15;0.88;;;10.80;87.10;;;;;;5113035;28;20122;-76
2022/11/06 08:11:10;;;;;;;0.80;0.70;;;10.80;87.10;;;;;;5129155;28;20039;-75
2022/11/06 08:13:37;;;;;;;1.90;0.70;;;10.90;87.00;;;;;;5130144;28;20126;-76
2022/11/06 08:16:08;;;;;;;1.40;0.60;;;10.90;87.00;;;;;;5111502;28;20062;-76
2022/11/06 08:18:34;;;;;;;;;;;10.90;87.00;;;;;;5127610;28;20466;-77
2022/11/06 08:20:59;;;;;;;1.48;0.63;;;10.90;87.00;;;;;;5111351;28;19911;-76
2022/11/06 08:23:26;;;;;;;0.57;0.55;;;11.00;87.00;;;;;;5112145;28;20044;-76
2022/11/06 08:25:56;;;;;;;0.93;0.52;;;11.10;86.90;;;;;;5129239;28;20508;-76
2022/11/06 08:28:22;;;;;;;1.20;0.75;;;11.10;86.80;;;;;;5132213;28;20070;-75
2022/11/06 08:30:48;;;;;;;1.17;0.60;;;11.10;86.70;;;;;;5099589;28;20040;-75
2022/11/06 08:33:14;;;;;;;1.20;0.80;;;11.10;86.70;;;;;;5114759;28;20106;-76
2022/11/06 08:35:39;;;;;;;0.85;0.60;;;11.30;86.60;;;;;;5130453;28;20051;-76
2022/11/06 08:38:05;;;;;;;0.68;0.60;;;11.30;86.40;;;;;;5131214;28;20032;-75
2022/11/06 08:40:31;;;;;;;1.67;0.55;;;11.30;86.30;;;;;;5114339;28;20039;-75
2022/11/06 08:43:00;;;;;;;0.98;0.70;;;11.30;86.30;;;;;;5131684;28;20035;-75
2022/11/06 08:45:26;;;;;;;1.00;0.57;;;11.40;86.40;;;;;;5130118;28;20052;-75
2022/11/06 08:47:52;;;;;;;0.60;0.43;;;11.40;86.40;;;;;;5112696;28;20073;-76
2022/11/06 08:50:17;;;;;;;0.75;0.60;;;11.40;86.50;;;;;;5112020;28;20070;-76
2022/11/06 08:52:43;;;;;;;1.05;0.60;;;11.40;86.50;;;;;;5130135;28;20036;-75
2022/11/06 08:55:09;;;;;;;1.05;0.50;;;11.40;86.50;;;;;;5130303;28;20430;-75
2022/11/06 08:57:35;;;;;;;1.02;0.43;;;11.40;86.50;;;;;;5129771;28;20040;-75
2022/11/06 09:00:00;;;;;;;1.05;0.45;;;11.40;86.50;;;;;;5109062;28;20118;-76
2022/11/06 09:02:26;;;;;;;1.13;0.40;;;11.50;86.60;;;;;;5129190;28;20043;-75
2022/11/06 09:04:52;;;;;;;0.80;0.55;;;11.50;86.50;;;;;;5128754;28;20066;-76
2022/11/06 09:07:18;;;;;;;1.77;0.77;;;11.50;86.50;;;;;;5112180;28;20036;-75
2022/11/06 09:09:43;;;;;;;1.33;0.70;;;11.60;86.60;;;;;;5112432;28;20051;-76
2022/11/06 09:12:09;;;;;;;1.10;0.60;;;11.50;86.50;;;;;;5128844;28;20043;-75
2022/11/06 09:14:35;;;;;;;0.70;0.57;;;11.50;86.50;;;;;;5131088;28;20035;-75
2022/11/06 09:17:01;;;;;;;2.33;0.70;;;11.50;86.50;;;;;;5131075;28;20052;-75
2022/11/06 09:19:27;;;;;;;1.52;0.60;;;11.50;86.50;;;;;;5128042;28;20038;-75
2022/11/06 09:21:52;;;;;;;1.25;0.80;;;11.50;86.50;;;;;;5129999;28;20039;-75
2022/11/06 09:24:18;;;;;;;0.95;0.77;;;11.50;86.50;;;;;;5112819;28;20040;-75
2022/11/06 09:26:44;;;;;;;2.03;0.80;;;11.60;86.50;;;;;;5130621;28;20036;-75
2022/11/06 09:29:09;;;;;;;1.45;0.50;;;11.60;86.40;;;;;;5130854;28;20043;-75
2022/11/06 09:31:35;;;;;;;0.57;0.40;;;11.70;86.30;;;;;;5113132;28;20040;-75
2022/11/06 09:34:02;;;;;;;1.23;0.50;;;11.80;86.20;;;;;;5129994;28;20059;-75
2022/11/06 09:36:27;;;;;;;1.23;0.65;;;11.80;86.00;;;;;;5130378;28;20047;-75
2022/11/06 09:38:53;;;;;;;2.03;0.77;;;11.90;86.00;;;;;;5095818;28;20139;-75
2022/11/06 09:41:33;;;;;;;1.30;0.68;;;11.90;85.90;;;;;;5110858;28;20066;-76
2022/11/06 09:44:17;;;;;;;1.00;0.50;;;11.90;85.80;;;;;;5123685;28;20074;-76
2022/11/06 09:46:46;;;;;;;1.27;0.68;;;11.90;85.80;;;;;;5122463;28;20032;-76
2022/11/06 09:49:25;;;;;;;1.20;0.70;;;11.90;85.70;;;;;;5104329;28;20050;-76
2022/11/06 09:52:11;;;;;;;0.98;0.70;;;11.90;85.70;;;;;;5121817;28;20036;-75
2022/11/06 09:54:43;;;;;;;1.13;0.80;;;11.90;85.80;;;;;;5129301;28;20048;-75
2022/11/06 09:57:32;;;;;;;0.77;0.50;;;12.00;85.70;;;;;;5109375;28;20059;-75
2022/11/06 10:00:01;;;;;;;0.63;0.50;;;12.00;85.60;;;;;;5108113;28;20058;-75
2022/11/06 10:02:39;;;;;;;0.68;0.50;;;12.00;85.60;;;;;;5093616;28;20077;-75
2022/11/06 10:05:12;;;;;;;1.02;0.55;;;12.10;85.60;;;;;;5127644;28;20107;-75
2022/11/06 10:07:41;;;;;;;0.63;0.50;;;12.20;85.60;;;;;;5110679;28;20063;-76
2022/11/06 10:10:14;;;;;;;0.57;0.57;;;12.10;85.50;;;;;;5127224;28;20102;-76
2022/11/06 10:13:00;;;;;;;0.45;0.40;;;12.20;85.50;;;;;;5092604;28;20454;-76
2022/11/06 10:15:44;;;;;;;0.43;0.40;;;12.20;85.60;;;;;;5128239;28;20055;-75
2022/11/06 10:18:35;;;;;;;0.60;0.50;;;12.30;85.60;;;;;;5109786;28;20040;-75
2022/11/06 10:21:33;;;;;;;0.45;0.32;;;12.30;85.40;;;;;;5094473;28;20146;-76
2022/11/06 10:24:07;;;;;;;1.60;0.90;;;12.40;85.30;;;;;;5094113;28;20044;-76
2022/11/06 10:26:40;;;;;;;1.52;0.60;;;12.40;85.20;;;;;;5109898;28;20092;-75
2022/11/06 10:29:32;;;;;;;0.73;0.57;;;12.50;85.10;;;;;;5128912;28;20048;-76
2022/11/06 10:32:34;;;;;;;1.13;0.60;;;12.50;85.10;;;;;;5127092;28;20040;-75
2022/11/06 10:35:04;;;;;;;1.10;0.60;;;12.50;85.10;;;;;;5130628;28;20047;-76
2022/11/06 10:37:37;;;;;;;1.92;0.70;;;12.60;85.10;;;;;;5132976;28;20043;-75
2022/11/06 10:40:05;;;;;;;0.70;0.50;;;12.60;85.00;;;;;;5123892;28;20051;-76
2022/11/06 10:42:39;;;;;;;1.80;0.73;;;12.60;84.90;;;;;;5115644;28;20084;-75
2022/11/06 10:45:13;;;;;;;0.75;0.50;;;12.80;84.90;;;;;;5097633;28;20101;-76
2022/11/06 10:47:45;;;;;;;0.50;0.40;;;12.80;84.70;;;;;;5115619;28;20043;-76
2022/11/06 10:50:14;;;;;;;0.55;0.50;;;12.80;84.60;;;;;;5096912;28;20043;-75
2022/11/06 10:53:07;;;;;;;1.08;0.60;;;12.80;84.50;;;;;;5115152;28;20150;-76
2022/11/06 10:55:53;;;;;;;1.00;0.70;;;12.80;84.60;;;;;;5083648;28;20404;-76
2022/11/06 10:58:23;;;;;;;1.80;1.00;;;12.80;84.60;;;;;;5095001;28;20109;-76
2022/11/06 11:00:57;;;;;;;0.60;0.52;;;12.90;84.70;;;;;;5113474;28;20095;-75
2022/11/06 11:03:30;;;;;;;0.82;0.57;;;12.80;84.60;;;;;;5098280;28;20070;-75
2022/11/06 11:05:56;;;;;;;1.73;0.68;;;12.80;84.40;;;;;;5114801;28;20047;-75
2022/11/06 11:08:51;;;;;;;0.90;0.63;;;13.00;84.30;;;;;;5114657;28;20441;-76
2022/11/06 11:11:22;;;;;;;0.70;0.60;;;13.00;84.30;;;;;;5113314;28;20140;-75
2022/11/06 11:14:10;;;;;;;3.08;0.80;;;13.00;84.00;;;;;;5097522;28;20469;-76
2022/11/06 11:16:42;;;;;;;0.93;0.60;;;13.00;84.00;;;;;;5095411;28;20071;-76
2022/11/06 11:19:42;;;;;;;0.80;0.70;;;12.90;84.00;;;;;;5095316;28;20504;-75
2022/11/06 11:22:20;;;;;;;1.17;0.57;;;12.90;84.20;;;;;;5113290;28;20042;-75
2022/11/06 11:25:00;;;;;;;1.35;0.70;;;12.80;84.30;;;;;;5114990;28;20403;-75
2022/11/06 11:27:28;;;;;;;0.82;0.60;;;12.90;84.40;;;;;;5114791;28;20046;-76
2022/11/06 11:29:55;;;;;;;0.90;0.63;;;12.80;84.30;;;;;;5114654;28;20035;-76
2022/11/06 11:32:22;;;;;;;0.43;0.43;;;12.80;84.40;;;;;;5114389;28;20035;-76
2022/11/06 11:34:52;;;;;;;1.08;0.50;;;12.80;84.50;;;;;;5114416;28;20039;-75
2022/11/06 11:37:27;;;;;;;0.40;0.40;;;12.80;84.40;;;;;;5096159;28;20389;-75
2022/11/06 11:39:53;;;;;;;0.68;0.52;;;12.80;84.20;;;;;;5114323;28;20507;-76
2022/11/06 11:42:29;;;;;;;1.83;0.52;;;12.80;84.20;;;;;;5095783;28;20043;-76
2022/11/06 11:45:12;;;;;;;1.33;0.60;;;12.80;84.20;;;;;;5096051;28;20112;-76
2022/11/06 11:47:41;;;;;;;0.52;0.50;;;12.90;84.20;;;;;;5095475;28;20047;-76
2022/11/06 11:50:32;;;;;;;0.80;0.47;;;12.90;84.20;;;;;;5095539;28;20036;-76
2022/11/06 11:53:19;;;;;;;0.70;0.50;;;13.00;84.10;;;;;;5094624;28;20039;-75
2022/11/06 11:55:48;;;;;;;1.02;0.50;;;13.00;83.80;;;;;;5095789;28;20141;-76
2022/11/06 11:58:20;;;;;;;1.77;0.60;;;13.00;83.80;;;;;;5113997;28;20040;-76
2022/11/06 12:00:55;;;;;;;0.98;0.70;;;13.00;83.50;;;;;;5113745;28;20044;-75
2022/11/06 12:03:25;;;;;;;2.40;0.60;;;13.00;83.50;;;;;;5112022;28;20043;-76
2022/11/06 12:05:52;;;;;;;2.47;0.90;;;13.00;83.40;;;;;;5113719;28;20062;-75
2022/11/06 12:08:24;;;;;;;1.33;0.70;;;13.00;83.30;;;;;;5095691;28;20048;-75
2022/11/06 12:10:50;;;;;;;1.52;0.60;;;13.00;83.10;;;;;;5113564;28;20099;-75
2022/11/06 12:13:19;;;;;;;1.58;0.55;;;13.00;83.10;;;;;;5095587;28;20119;-75
2022/11/06 12:15:58;;;;;;;2.15;0.80;;;13.00;83.10;;;;;;5113379;28;20035;-75
2022/11/06 12:18:34;;;;;;;1.65;0.73;;;13.00;82.60;;;;;;5111500;28;20493;-75
2022/11/06 12:21:23;;;;;;;1.63;0.85;;;13.00;82.70;;;;;;5094613;28;20112;-76
2022/11/06 12:23:56;;;;;;;1.92;0.85;;;13.00;82.70;;;;;;5113525;28;20358;-75
2022/11/06 12:26:40;;;;;;;2.25;0.82;;;12.90;82.60;;;;;;5096311;28;20039;-76
2022/11/06 12:29:30;;;;;;;1.40;0.85;;;12.90;82.70;;;;;;5113320;28;20046;-76
2022/11/06 12:32:18;;;;;;;0.52;0.40;;;12.90;82.80;;;;;;5113939;28;20067;-75
2022/11/06 12:35:02;;;;;;;0.70;0.47;;;12.80;82.80;;;;;;5094913;28;20078;-76
2022/11/06 12:37:55;;;;;;;0.70;0.40;;;12.80;82.80;;;;;;5095259;28;20046;-76
2022/11/06 12:40:31;;;;;;;0.77;0.50;;;12.80;82.90;;;;;;5112835;28;20074;-75
2022/11/06 12:43:16;;;;;;;0.80;0.57;;;12.90;82.90;;;;;;5111492;28;20035;-75
2022/11/06 12:46:10;;;;;;;0.40;0.40;;;12.80;82.90;;;;;;5093033;28;20062;-75
2022/11/06 12:49:01;;;;;;;2.20;0.60;;;12.80;82.90;;;;;;5112490;28;20109;-76
2022/11/06 12:51:51;;;;;;;1.13;0.60;;;12.70;82.70;;;;;;5092929;28;20400;-75
2022/11/06 12:54:40;;;;;;;1.77;0.52;;;12.80;82.80;;;;;;5111989;28;20048;-75
2022/11/06 12:57:44;;;;;;;0.63;0.32;;;12.80;82.70;;;;;;5094380;28;20047;-76
2022/11/06 13:00:15;;;;;;;0.95;0.50;;;12.80;82.70;;;;;;5094106;28;20035;-75
2022/11/06 13:03:14;;;;;;;1.35;0.60;;;12.80;82.80;;;;;;5113076;28;20040;-75
2022/11/06 13:05:56;;;;;;;1.33;0.68;;;12.80;82.70;;;;;;5112764;28;20049;-76
2022/11/06 13:08:48;;;;;;;1.33;0.55;;;12.80;82.70;;;;;;5112346;28;20100;-75
2022/11/06 13:11:19;;;;;;;;;;;12.80;82.60;;;;;;5111644;28;20501;-75
2022/11/06 13:14:12;;;;;;;0.50;0.40;;;12.80;82.60;;;;;;5112802;28;19912;-75
2022/11/06 13:17:01;;;;;;;0.77;0.40;;;12.90;82.50;;;;;;5080519;28;20054;-76
2022/11/06 13:19:33;;;;;;;1.52;0.40;;;12.80;82.40;;;;;;5113137;28;20047;-75
2022/11/06 13:22:19;;;;;;;0.52;0.40;;;12.90;82.50;;;;;;5078059;28;20044;-75
2022/11/06 13:24:59;;;;;;;1.17;0.50;;;12.90;82.50;;;;;;5110886;28;20039;-75